sensor_id;sensor_type;location;lat;lon;timestamp;temperature;humidity
2873;DHT22;1444;49.166;7.312;2023-07-20T00:02:23;16.60;93.30
2873;DHT22;1444;49.166;7.312;2023-07-20T00:04:50;16.40;93.70
2873;DHT22;1444;49.166;7.312;2023-07-20T00:07:17;16.20;94.00
2873;DHT22;1444;49.166;7.312;2023-07-20T00:09:44;16.10;94.30
2873;DHT22;1444;49.166;7.312;2023-07-20T00:12:11;16.00;94.60
2873;DHT22;1444;49.166;7.312;2023-07-20T00:14:37;16.30;95.10
2873;DHT22;1444;49.166;7.312;2023-07-20T00:17:05;15.90;95.00
2873;DHT22;1444;49.166;7.312;2023-07-20T00:19:33;15.80;95.20
2873;DHT22;1444;49.166;7.312;2023-07-20T00:22:00;15.80;95.90
2873;DHT22;1444;49.166;7.312;2023-07-20T00:24:27;15.60;96.30
2873;DHT22;1444;49.166;7.312;2023-07-20T00:26:54;15.60;96.40
2873;DHT22;1444;49.166;7.312;2023-07-20T00:29:21;15.50;96.60
2873;DHT22;1444;49.166;7.312;2023-07-20T00:31:48;15.50;96.90
2873;DHT22;1444;49.166;7.312;2023-07-20T00:34:14;15.40;97.10
2873;DHT22;1444;49.166;7.312;2023-07-20T00:36:43;15.40;97.00
2873;DHT22;1444;49.166;7.312;2023-07-20T00:39:09;15.40;97.00
2873;DHT22;1444;49.166;7.312;2023-07-20T00:41:37;15.40;96.90
2873;DHT22;1444;49.166;7.312;2023-07-20T00:44:04;15.40;97.50
2873;DHT22;1444;49.166;7.312;2023-07-20T00:46:32;15.50;97.60
2873;DHT22;1444;49.166;7.312;2023-07-20T00:48:59;15.50;97.40
2873;DHT22;1444;49.166;7.312;2023-07-20T00:51:26;15.50;97.60
2873;DHT22;1444;49.166;7.312;2023-07-20T00:53:55;15.50;97.50
2873;DHT22;1444;49.166;7.312;2023-07-20T00:56:22;15.50;97.60
2873;DHT22;1444;49.166;7.312;2023-07-20T00:58:49;15.50;97.50
2873;DHT22;1444;49.166;7.312;2023-07-20T01:01:16;14.40;97.00
2873;DHT22;1444;49.166;7.312;2023-07-20T01:03:42;15.40;97.80
2873;DHT22;1444;49.166;7.312;2023-07-20T01:06:15;15.40;97.90
2873;DHT22;1444;49.166;7.312;2023-07-20T01:08:53;15.30;98.00
2873;DHT22;1444;49.166;7.312;2023-07-20T01:11:31;15.30;98.40
2873;DHT22;1444;49.166;7.312;2023-07-20T01:14:00;15.40;98.40
2873;DHT22;1444;49.166;7.312;2023-07-20T01:16:27;15.30;98.20
2873;DHT22;1444;49.166;7.312;2023-07-20T01:18:54;15.30;98.10
2873;DHT22;1444;49.166;7.312;2023-07-20T01:21:26;15.30;98.10
2873;DHT22;1444;49.166;7.312;2023-07-20T01:24:11;15.20;98.20
2873;DHT22;1444;49.166;7.312;2023-07-20T01:27:16;15.10;98.10
2873;DHT22;1444;49.166;7.312;2023-07-20T01:30:03;15.00;98.60
2873;DHT22;1444;49.166;7.312;2023-07-20T01:32:33;15.00;98.50
2873;DHT22;1444;49.166;7.312;2023-07-20T01:35:01;14.80;99.00
2873;DHT22;1444;49.166;7.312;2023-07-20T01:37:30;14.70;99.60
2873;DHT22;1444;49.166;7.312;2023-07-20T01:39:58;14.70;99.80
2873;DHT22;1444;49.166;7.312;2023-07-20T01:42:26;14.70;99.80
2873;DHT22;1444;49.166;7.312;2023-07-20T01:44:53;14.70;99.90
2873;DHT22;1444;49.166;7.312;2023-07-20T01:47:20;14.70;99.90
2873;DHT22;1444;49.166;7.312;2023-07-20T01:49:49;14.90;99.90
2873;DHT22;1444;49.166;7.312;2023-07-20T01:52:15;14.80;99.90
2873;DHT22;1444;49.166;7.312;2023-07-20T01:54:42;14.70;99.90
2873;DHT22;1444;49.166;7.312;2023-07-20T01:57:09;14.80;99.90
2873;DHT22;1444;49.166;7.312;2023-07-20T01:59:36;14.80;99.90
2873;DHT22;1444;49.166;7.312;2023-07-20T02:02:03;14.80;99.70
2873;DHT22;1444;49.166;7.312;2023-07-20T02:04:30;14.80;99.50
2873;DHT22;1444;49.166;7.312;2023-07-20T02:06:58;14.90;99.40
2873;DHT22;1444;49.166;7.312;2023-07-20T02:09:25;14.90;99.40
2873;DHT22;1444;49.166;7.312;2023-07-20T02:11:53;14.90;99.30
2873;DHT22;1444;49.166;7.312;2023-07-20T02:14:20;14.90;99.10
2873;DHT22;1444;49.166;7.312;2023-07-20T02:16:48;15.00;98.80
2873;DHT22;1444;49.166;7.312;2023-07-20T02:19:17;15.00;98.80
2873;DHT22;1444;49.166;7.312;2023-07-20T02:21:44;14.90;99.20
2873;DHT22;1444;49.166;7.312;2023-07-20T02:24:13;15.00;99.30
2873;DHT22;1444;49.166;7.312;2023-07-20T02:26:40;15.00;99.20
2873;DHT22;1444;49.166;7.312;2023-07-20T02:29:07;15.10;99.30
2873;DHT22;1444;49.166;7.312;2023-07-20T02:31:37;15.10;99.40
2873;DHT22;1444;49.166;7.312;2023-07-20T02:34:04;15.10;99.60
2873;DHT22;1444;49.166;7.312;2023-07-20T02:36:31;15.00;99.90
2873;DHT22;1444;49.166;7.312;2023-07-20T02:38:59;14.90;99.90
2873;DHT22;1444;49.166;7.312;2023-07-20T02:41:29;14.90;99.90
2873;DHT22;1444;49.166;7.312;2023-07-20T02:43:56;13.90;99.90
2873;DHT22;1444;49.166;7.312;2023-07-20T02:46:23;16.70;99.90
2873;DHT22;1444;49.166;7.312;2023-07-20T02:48:49;15.20;99.80
2873;DHT22;1444;49.166;7.312;2023-07-20T02:51:16;16.00;99.90
2873;DHT22;1444;49.166;7.312;2023-07-20T02:53:43;15.10;99.90
2873;DHT22;1444;49.166;7.312;2023-07-20T02:56:10;15.00;99.90
2873;DHT22;1444;49.166;7.312;2023-07-20T02:58:40;15.00;99.90
2873;DHT22;1444;49.166;7.312;2023-07-20T03:01:09;15.00;99.90
2873;DHT22;1444;49.166;7.312;2023-07-20T03:03:36;15.00;99.90
2873;DHT22;1444;49.166;7.312;2023-07-20T03:06:04;15.20;99.90
2873;DHT22;1444;49.166;7.312;2023-07-20T03:08:31;15.20;99.90
2873;DHT22;1444;49.166;7.312;2023-07-20T03:10:58;15.20;99.90
2873;DHT22;1444;49.166;7.312;2023-07-20T03:13:25;15.30;99.90
2873;DHT22;1444;49.166;7.312;2023-07-20T03:15:53;15.40;99.90
2873;DHT22;1444;49.166;7.312;2023-07-20T03:18:20;15.40;99.90
2873;DHT22;1444;49.166;7.312;2023-07-20T03:20:47;15.40;99.60
2873;DHT22;1444;49.166;7.312;2023-07-20T03:23:14;15.40;99.80
2873;DHT22;1444;49.166;7.312;2023-07-20T03:25:42;15.40;99.50
2873;DHT22;1444;49.166;7.312;2023-07-20T03:28:09;15.40;99.70
2873;DHT22;1444;49.166;7.312;2023-07-20T03:30:35;15.40;99.90
2873;DHT22;1444;49.166;7.312;2023-07-20T03:33:04;15.40;99.80
2873;DHT22;1444;49.166;7.312;2023-07-20T03:35:30;15.40;99.70
2873;DHT22;1444;49.166;7.312;2023-07-20T03:37:57;15.40;99.60
2873;DHT22;1444;49.166;7.312;2023-07-20T03:40:24;15.40;99.30
2873;DHT22;1444;49.166;7.312;2023-07-20T03:42:51;15.40;99.40
2873;DHT22;1444;49.166;7.312;2023-07-20T03:45:18;15.30;99.50
2873;DHT22;1444;49.166;7.312;2023-07-20T03:47:45;15.20;99.90
2873;DHT22;1444;49.166;7.312;2023-07-20T03:50:15;15.00;99.90
2873;DHT22;1444;49.166;7.312;2023-07-20T03:52:42;14.80;99.90
2873;DHT22;1444;49.166;7.312;2023-07-20T03:55:09;14.60;99.90
2873;DHT22;1444;49.166;7.312;2023-07-20T03:57:36;14.50;99.90
2873;DHT22;1444;49.166;7.312;2023-07-20T04:00:03;14.60;99.90
2873;DHT22;1444;49.166;7.312;2023-07-20T04:02:33;14.50;99.90
2873;DHT22;1444;49.166;7.312;2023-07-20T04:05:00;14.60;99.90
2873;DHT22;1444;49.166;7.312;2023-07-20T04:07:28;14.50;99.90
2873;DHT22;1444;49.166;7.312;2023-07-20T04:09:55;14.50;99.90
2873;DHT22;1444;49.166;7.312;2023-07-20T04:12:22;14.50;99.90
2873;DHT22;1444;49.166;7.312;2023-07-20T04:14:48;14.50;99.90
2873;DHT22;1444;49.166;7.312;2023-07-20T04:17:15;14.30;99.90
2873;DHT22;1444;49.166;7.312;2023-07-20T04:19:42;14.10;99.90
2873;DHT22;1444;49.166;7.312;2023-07-20T04:22:09;14.00;99.90
2873;DHT22;1444;49.166;7.312;2023-07-20T04:24:37;14.10;99.90
2873;DHT22;1444;49.166;7.312;2023-07-20T04:27:04;14.10;99.90
2873;DHT22;1444;49.166;7.312;2023-07-20T04:29:31;15.00;99.90
2873;DHT22;1444;49.166;7.312;2023-07-20T04:31:58;14.00;99.90
2873;DHT22;1444;49.166;7.312;2023-07-20T04:34:25;14.00;99.90
2873;DHT22;1444;49.166;7.312;2023-07-20T04:36:52;14.10;99.90
2873;DHT22;1444;49.166;7.312;2023-07-20T04:39:18;14.10;99.90
2873;DHT22;1444;49.166;7.312;2023-07-20T04:41:47;14.20;99.90
2873;DHT22;1444;49.166;7.312;2023-07-20T04:44:14;14.20;99.90
2873;DHT22;1444;49.166;7.312;2023-07-20T04:46:41;14.20;99.90
2873;DHT22;1444;49.166;7.312;2023-07-20T04:49:08;14.30;99.90
2873;DHT22;1444;49.166;7.312;2023-07-20T04:51:35;14.20;99.90
2873;DHT22;1444;49.166;7.312;2023-07-20T04:54:01;14.20;99.90
2873;DHT22;1444;49.166;7.312;2023-07-20T04:56:28;14.30;99.90
2873;DHT22;1444;49.166;7.312;2023-07-20T04:58:56;14.40;99.90
2873;DHT22;1444;49.166;7.312;2023-07-20T05:01:23;14.50;99.90
2873;DHT22;1444;49.166;7.312;2023-07-20T05:03:52;14.70;99.90
2873;DHT22;1444;49.166;7.312;2023-07-20T05:06:19;14.80;99.90
2873;DHT22;1444;49.166;7.312;2023-07-20T05:08:45;14.90;99.90
2873;DHT22;1444;49.166;7.312;2023-07-20T05:11:12;15.10;99.90
2873;DHT22;1444;49.166;7.312;2023-07-20T05:13:40;15.20;99.90
2873;DHT22;1444;49.166;7.312;2023-07-20T05:16:08;15.30;99.90
2873;DHT22;1444;49.166;7.312;2023-07-20T05:18:35;15.60;99.90
2873;DHT22;1444;49.166;7.312;2023-07-20T05:21:02;15.60;99.90
2873;DHT22;1444;49.166;7.312;2023-07-20T05:23:28;15.70;99.90
2873;DHT22;1444;49.166;7.312;2023-07-20T05:25:55;15.80;99.90
2873;DHT22;1444;49.166;7.312;2023-07-20T05:28:22;15.90;99.90
2873;DHT22;1444;49.166;7.312;2023-07-20T05:30:50;16.10;99.90
2873;DHT22;1444;49.166;7.312;2023-07-20T05:33:19;16.20;99.90
2873;DHT22;1444;49.166;7.312;2023-07-20T05:35:46;16.40;99.90
2873;DHT22;1444;49.166;7.312;2023-07-20T05:38:13;16.50;99.90
2873;DHT22;1444;49.166;7.312;2023-07-20T05:40:41;16.50;99.90
2873;DHT22;1444;49.166;7.312;2023-07-20T05:43:08;16.60;99.90
2873;DHT22;1444;49.166;7.312;2023-07-20T05:45:35;16.70;99.90
2873;DHT22;1444;49.166;7.312;2023-07-20T05:48:01;16.80;99.90
2873;DHT22;1444;49.166;7.312;2023-07-20T05:50:30;16.90;99.90
2873;DHT22;1444;49.166;7.312;2023-07-20T05:52:57;16.90;99.90
2873;DHT22;1444;49.166;7.312;2023-07-20T05:55:23;17.10;99.90
2873;DHT22;1444;49.166;7.312;2023-07-20T05:57:50;17.10;99.90
2873;DHT22;1444;49.166;7.312;2023-07-20T06:00:18;17.20;99.90
2873;DHT22;1444;49.166;7.312;2023-07-20T06:02:51;17.20;99.90
2873;DHT22;1444;49.166;7.312;2023-07-20T06:05:18;17.40;99.90
2873;DHT22;1444;49.166;7.312;2023-07-20T06:07:47;17.40;99.90
2873;DHT22;1444;49.166;7.312;2023-07-20T06:10:13;17.50;99.90
2873;DHT22;1444;49.166;7.312;2023-07-20T06:12:40;17.60;99.90
2873;DHT22;1444;49.166;7.312;2023-07-20T06:15:24;17.80;99.90
2873;DHT22;1444;49.166;7.312;2023-07-20T06:17:53;17.90;99.90
2873;DHT22;1444;49.166;7.312;2023-07-20T06:20:21;18.10;99.90
2873;DHT22;1444;49.166;7.312;2023-07-20T06:22:50;18.20;99.90
2873;DHT22;1444;49.166;7.312;2023-07-20T06:25:17;17.00;99.90
2873;DHT22;1444;49.166;7.312;2023-07-20T06:27:44;18.40;99.90
2873;DHT22;1444;49.166;7.312;2023-07-20T06:30:11;18.60;99.90
2873;DHT22;1444;49.166;7.312;2023-07-20T06:32:38;18.60;99.60
2873;DHT22;1444;49.166;7.312;2023-07-20T06:35:06;18.70;99.90
2873;DHT22;1444;49.166;7.312;2023-07-20T06:37:34;18.90;99.90
2873;DHT22;1444;49.166;7.312;2023-07-20T06:40:02;18.90;99.00
2873;DHT22;1444;49.166;7.312;2023-07-20T06:42:30;19.00;99.10
2873;DHT22;1444;49.166;7.312;2023-07-20T06:44:57;19.00;99.30
2873;DHT22;1444;49.166;7.312;2023-07-20T06:47:24;19.20;99.30
2873;DHT22;1444;49.166;7.312;2023-07-20T06:49:51;19.20;99.30
2873;DHT22;1444;49.166;7.312;2023-07-20T06:52:18;19.40;98.70
2873;DHT22;1444;49.166;7.312;2023-07-20T06:54:45;19.50;98.10
2873;DHT22;1444;49.166;7.312;2023-07-20T06:57:13;19.60;98.10
2873;DHT22;1444;49.166;7.312;2023-07-20T06:59:40;19.80;98.30
2873;DHT22;1444;49.166;7.312;2023-07-20T07:02:06;19.90;98.70
2873;DHT22;1444;49.166;7.312;2023-07-20T07:04:33;18.60;96.70
2873;DHT22;1444;49.166;7.312;2023-07-20T07:07:00;20.00;97.50
2873;DHT22;1444;49.166;7.312;2023-07-20T07:09:28;20.30;96.30
2873;DHT22;1444;49.166;7.312;2023-07-20T07:11:55;20.40;96.60
2873;DHT22;1444;49.166;7.312;2023-07-20T07:14:24;20.60;95.80
2873;DHT22;1444;49.166;7.312;2023-07-20T07:16:50;20.60;95.60
2873;DHT22;1444;49.166;7.312;2023-07-20T07:19:18;20.60;96.10
2873;DHT22;1444;49.166;7.312;2023-07-20T07:21:44;20.70;96.00
2873;DHT22;1444;49.166;7.312;2023-07-20T07:24:11;20.90;96.20
2873;DHT22;1444;49.166;7.312;2023-07-20T07:26:38;21.00;95.20
2873;DHT22;1444;49.166;7.312;2023-07-20T07:29:05;21.00;94.10
2873;DHT22;1444;49.166;7.312;2023-07-20T07:31:35;21.00;94.30
2873;DHT22;1444;49.166;7.312;2023-07-20T07:34:02;21.10;93.60
2873;DHT22;1444;49.166;7.312;2023-07-20T07:36:30;21.10;93.60
2873;DHT22;1444;49.166;7.312;2023-07-20T07:38:57;21.10;93.20
2873;DHT22;1444;49.166;7.312;2023-07-20T07:41:24;21.30;92.80
2873;DHT22;1444;49.166;7.312;2023-07-20T07:43:50;21.50;93.00
2873;DHT22;1444;49.166;7.312;2023-07-20T07:46:17;21.60;93.00
2873;DHT22;1444;49.166;7.312;2023-07-20T07:48:45;21.80;91.90
2873;DHT22;1444;49.166;7.312;2023-07-20T07:51:12;21.70;92.20
2873;DHT22;1444;49.166;7.312;2023-07-20T07:53:41;21.90;92.40
2873;DHT22;1444;49.166;7.312;2023-07-20T07:56:07;21.80;91.60
2873;DHT22;1444;49.166;7.312;2023-07-20T07:58:35;21.70;91.20
2873;DHT22;1444;49.166;7.312;2023-07-20T08:01:01;21.70;93.20
2873;DHT22;1444;49.166;7.312;2023-07-20T08:03:28;21.80;92.40
2873;DHT22;1444;49.166;7.312;2023-07-20T08:05:57;22.00;92.60
2873;DHT22;1444;49.166;7.312;2023-07-20T08:08:24;22.10;92.30
2873;DHT22;1444;49.166;7.312;2023-07-20T08:10:53;22.30;92.60
2873;DHT22;1444;49.166;7.312;2023-07-20T08:13:20;22.30;91.40
2873;DHT22;1444;49.166;7.312;2023-07-20T08:15:50;22.20;91.80
2873;DHT22;1444;49.166;7.312;2023-07-20T08:18:17;22.20;92.70
2873;DHT22;1444;49.166;7.312;2023-07-20T08:20:44;22.40;92.30
2873;DHT22;1444;49.166;7.312;2023-07-20T08:23:13;22.50;91.40
2873;DHT22;1444;49.166;7.312;2023-07-20T08:25:40;22.70;93.20
2873;DHT22;1444;49.166;7.312;2023-07-20T08:28:09;22.90;91.90
2873;DHT22;1444;49.166;7.312;2023-07-20T08:30:40;23.10;90.90
2873;DHT22;1444;49.166;7.312;2023-07-20T08:33:07;23.30;90.10
2873;DHT22;1444;49.166;7.312;2023-07-20T08:35:34;23.30;90.00
2873;DHT22;1444;49.166;7.312;2023-07-20T08:38:01;23.50;90.90
2873;DHT22;1444;49.166;7.312;2023-07-20T08:40:31;23.70;87.60
2873;DHT22;1444;49.166;7.312;2023-07-20T08:42:59;23.60;89.90
2873;DHT22;1444;49.166;7.312;2023-07-20T08:45:27;23.80;89.60
2873;DHT22;1444;49.166;7.312;2023-07-20T08:47:56;23.80;90.10
2873;DHT22;1444;49.166;7.312;2023-07-20T08:50:25;23.90;87.00
2873;DHT22;1444;49.166;7.312;2023-07-20T08:52:52;24.00;86.50
2873;DHT22;1444;49.166;7.312;2023-07-20T08:55:21;24.00;85.40
2873;DHT22;1444;49.166;7.312;2023-07-20T08:57:52;23.90;85.40
2873;DHT22;1444;49.166;7.312;2023-07-20T09:00:20;23.80;87.10
2873;DHT22;1444;49.166;7.312;2023-07-20T09:02:50;23.90;87.30
2873;DHT22;1444;49.166;7.312;2023-07-20T09:05:17;23.90;86.20
2873;DHT22;1444;49.166;7.312;2023-07-20T09:07:44;23.80;84.50
2873;DHT22;1444;49.166;7.312;2023-07-20T09:10:11;24.00;87.40
2873;DHT22;1444;49.166;7.312;2023-07-20T09:12:40;24.00;85.30
2873;DHT22;1444;49.166;7.312;2023-07-20T09:15:10;24.00;85.90
2873;DHT22;1444;49.166;7.312;2023-07-20T09:17:37;24.10;84.50
2873;DHT22;1444;49.166;7.312;2023-07-20T09:20:06;24.10;85.70
2873;DHT22;1444;49.166;7.312;2023-07-20T09:22:36;24.20;85.40
2873;DHT22;1444;49.166;7.312;2023-07-20T09:25:06;24.10;84.20
2873;DHT22;1444;49.166;7.312;2023-07-20T09:27:36;24.20;84.30
2873;DHT22;1444;49.166;7.312;2023-07-20T09:30:04;24.40;85.10
2873;DHT22;1444;49.166;7.312;2023-07-20T09:32:38;24.30;84.40
2873;DHT22;1444;49.166;7.312;2023-07-20T09:35:06;24.10;82.70
2873;DHT22;1444;49.166;7.312;2023-07-20T09:37:33;24.30;84.40
2873;DHT22;1444;49.166;7.312;2023-07-20T09:40:00;24.30;88.40
2873;DHT22;1444;49.166;7.312;2023-07-20T09:42:28;24.50;88.00
2873;DHT22;1444;49.166;7.312;2023-07-20T09:44:55;24.70;84.80
2873;DHT22;1444;49.166;7.312;2023-07-20T09:47:22;24.70;82.90
2873;DHT22;1444;49.166;7.312;2023-07-20T09:49:57;24.80;85.30
2873;DHT22;1444;49.166;7.312;2023-07-20T09:52:25;24.90;81.40
2873;DHT22;1444;49.166;7.312;2023-07-20T09:54:53;25.00;80.20
2873;DHT22;1444;49.166;7.312;2023-07-20T09:57:21;25.30;80.60
2873;DHT22;1444;49.166;7.312;2023-07-20T09:59:48;25.20;80.30
2873;DHT22;1444;49.166;7.312;2023-07-20T10:02:20;25.20;84.50
2873;DHT22;1444;49.166;7.312;2023-07-20T10:04:51;25.30;78.90
2873;DHT22;1444;49.166;7.312;2023-07-20T10:07:19;25.50;80.50
2873;DHT22;1444;49.166;7.312;2023-07-20T10:09:51;25.60;83.40
2873;DHT22;1444;49.166;7.312;2023-07-20T10:12:22;25.50;79.80
2873;DHT22;1444;49.166;7.312;2023-07-20T10:14:54;25.50;80.20
2873;DHT22;1444;49.166;7.312;2023-07-20T10:17:26;25.60;84.50
2873;DHT22;1444;49.166;7.312;2023-07-20T10:19:57;25.30;80.70
2873;DHT22;1444;49.166;7.312;2023-07-20T10:22:27;25.20;76.40
2873;DHT22;1444;49.166;7.312;2023-07-20T10:24:58;25.40;76.60
2873;DHT22;1444;49.166;7.312;2023-07-20T10:27:26;25.00;78.00
2873;DHT22;1444;49.166;7.312;2023-07-20T10:29:54;25.10;78.10
2873;DHT22;1444;49.166;7.312;2023-07-20T10:32:23;25.20;78.80
2873;DHT22;1444;49.166;7.312;2023-07-20T10:34:52;25.10;77.00
2873;DHT22;1444;49.166;7.312;2023-07-20T10:37:51;25.20;78.70
2873;DHT22;1444;49.166;7.312;2023-07-20T10:40:26;25.30;79.10
2873;DHT22;1444;49.166;7.312;2023-07-20T10:43:00;25.70;78.20
2873;DHT22;1444;49.166;7.312;2023-07-20T10:45:47;25.60;75.60
2873;DHT22;1444;49.166;7.312;2023-07-20T10:48:16;25.60;77.40
2873;DHT22;1444;49.166;7.312;2023-07-20T10:50:43;25.60;78.40
2873;DHT22;1444;49.166;7.312;2023-07-20T10:53:12;25.50;75.00
2873;DHT22;1444;49.166;7.312;2023-07-20T10:55:39;25.40;73.50
2873;DHT22;1444;49.166;7.312;2023-07-20T10:58:08;25.70;80.40
2873;DHT22;1444;49.166;7.312;2023-07-20T11:00:36;25.90;74.00
2873;DHT22;1444;49.166;7.312;2023-07-20T11:03:03;25.90;74.90
2873;DHT22;1444;49.166;7.312;2023-07-20T11:05:38;26.10;76.00
2873;DHT22;1444;49.166;7.312;2023-07-20T11:08:07;26.40;74.40
2873;DHT22;1444;49.166;7.312;2023-07-20T11:10:37;26.40;72.10
2873;DHT22;1444;49.166;7.312;2023-07-20T11:13:17;26.50;75.00
2873;DHT22;1444;49.166;7.312;2023-07-20T11:15:45;26.50;72.70
2873;DHT22;1444;49.166;7.312;2023-07-20T11:18:12;26.30;72.20
2873;DHT22;1444;49.166;7.312;2023-07-20T11:20:40;26.30;72.00
2873;DHT22;1444;49.166;7.312;2023-07-20T11:23:07;26.30;73.60
2873;DHT22;1444;49.166;7.312;2023-07-20T11:25:39;26.00;72.70
2873;DHT22;1444;49.166;7.312;2023-07-20T11:28:07;25.90;73.70
2873;DHT22;1444;49.166;7.312;2023-07-20T11:30:36;26.20;74.40
2873;DHT22;1444;49.166;7.312;2023-07-20T11:33:03;26.20;70.50
2873;DHT22;1444;49.166;7.312;2023-07-20T11:35:30;26.60;75.70
2873;DHT22;1444;49.166;7.312;2023-07-20T11:37:57;26.60;74.30
2873;DHT22;1444;49.166;7.312;2023-07-20T11:40:24;26.80;70.90
2873;DHT22;1444;49.166;7.312;2023-07-20T11:42:53;26.70;73.80
2873;DHT22;1444;49.166;7.312;2023-07-20T11:45:20;26.70;74.30
2873;DHT22;1444;49.166;7.312;2023-07-20T11:47:47;27.00;70.10
2873;DHT22;1444;49.166;7.312;2023-07-20T11:50:15;26.90;68.70
2873;DHT22;1444;49.166;7.312;2023-07-20T11:52:42;27.10;71.20
2873;DHT22;1444;49.166;7.312;2023-07-20T11:55:10;26.70;69.20
2873;DHT22;1444;49.166;7.312;2023-07-20T11:57:38;26.90;74.00
2873;DHT22;1444;49.166;7.312;2023-07-20T12:00:08;26.80;70.90
2873;DHT22;1444;49.166;7.312;2023-07-20T12:02:37;26.90;68.10
2873;DHT22;1444;49.166;7.312;2023-07-20T12:05:06;27.20;68.40
2873;DHT22;1444;49.166;7.312;2023-07-20T12:07:36;27.30;68.50
2873;DHT22;1444;49.166;7.312;2023-07-20T12:10:06;27.50;70.00
2873;DHT22;1444;49.166;7.312;2023-07-20T12:12:33;27.60;71.20
2873;DHT22;1444;49.166;7.312;2023-07-20T12:15:20;27.60;69.60
2873;DHT22;1444;49.166;7.312;2023-07-20T12:17:50;27.70;68.70
2873;DHT22;1444;49.166;7.312;2023-07-20T12:20:25;27.20;67.70
2873;DHT22;1444;49.166;7.312;2023-07-20T12:22:52;27.00;66.30
2873;DHT22;1444;49.166;7.312;2023-07-20T12:25:19;27.10;68.30
2873;DHT22;1444;49.166;7.312;2023-07-20T12:27:47;27.00;68.70
2873;DHT22;1444;49.166;7.312;2023-07-20T12:30:16;27.40;68.90
2873;DHT22;1444;49.166;7.312;2023-07-20T12:32:43;27.70;68.50
2873;DHT22;1444;49.166;7.312;2023-07-20T12:35:10;27.90;70.70
2873;DHT22;1444;49.166;7.312;2023-07-20T12:37:40;28.10;69.30
2873;DHT22;1444;49.166;7.312;2023-07-20T12:40:08;28.40;68.10
2873;DHT22;1444;49.166;7.312;2023-07-20T12:42:36;28.40;66.10
2873;DHT22;1444;49.166;7.312;2023-07-20T12:45:04;28.30;64.10
2873;DHT22;1444;49.166;7.312;2023-07-20T12:47:33;28.10;63.60
2873;DHT22;1444;49.166;7.312;2023-07-20T12:49:59;28.10;63.80
2873;DHT22;1444;49.166;7.312;2023-07-20T12:52:26;28.00;64.20
2873;DHT22;1444;49.166;7.312;2023-07-20T12:54:53;27.50;62.00
2873;DHT22;1444;49.166;7.312;2023-07-20T12:57:20;27.40;63.30
2873;DHT22;1444;49.166;7.312;2023-07-20T12:59:47;27.30;65.80
2873;DHT22;1444;49.166;7.312;2023-07-20T13:02:13;27.30;68.10
2873;DHT22;1444;49.166;7.312;2023-07-20T13:04:42;27.40;65.50
2873;DHT22;1444;49.166;7.312;2023-07-20T13:07:10;27.70;65.00
2873;DHT22;1444;49.166;7.312;2023-07-20T13:09:38;28.00;64.00
2873;DHT22;1444;49.166;7.312;2023-07-20T13:12:05;28.20;62.90
2873;DHT22;1444;49.166;7.312;2023-07-20T13:14:32;28.00;61.70
2873;DHT22;1444;49.166;7.312;2023-07-20T13:16:59;27.40;62.00
2873;DHT22;1444;49.166;7.312;2023-07-20T13:19:26;27.50;65.90
2873;DHT22;1444;49.166;7.312;2023-07-20T13:21:55;27.70;67.10
2873;DHT22;1444;49.166;7.312;2023-07-20T13:24:21;27.80;66.90
2873;DHT22;1444;49.166;7.312;2023-07-20T13:26:48;27.80;67.30
2873;DHT22;1444;49.166;7.312;2023-07-20T13:29:15;27.80;66.20
2873;DHT22;1444;49.166;7.312;2023-07-20T13:31:42;27.70;66.80
2873;DHT22;1444;49.166;7.312;2023-07-20T13:34:09;27.60;65.60
2873;DHT22;1444;49.166;7.312;2023-07-20T13:36:36;27.50;67.90
2873;DHT22;1444;49.166;7.312;2023-07-20T13:39:04;27.40;67.00
2873;DHT22;1444;49.166;7.312;2023-07-20T13:41:31;27.40;66.50
2873;DHT22;1444;49.166;7.312;2023-07-20T13:43:58;27.40;67.40
2873;DHT22;1444;49.166;7.312;2023-07-20T13:46:25;27.10;65.20
2873;DHT22;1444;49.166;7.312;2023-07-20T13:48:52;27.00;67.40
2873;DHT22;1444;49.166;7.312;2023-07-20T13:51:19;27.00;66.20
2873;DHT22;1444;49.166;7.312;2023-07-20T13:53:47;26.80;65.40
2873;DHT22;1444;49.166;7.312;2023-07-20T13:56:15;26.80;66.80
2873;DHT22;1444;49.166;7.312;2023-07-20T13:58:42;27.10;68.70
2873;DHT22;1444;49.166;7.312;2023-07-20T14:01:09;27.40;70.40
2873;DHT22;1444;49.166;7.312;2023-07-20T14:03:36;27.40;66.50
2873;DHT22;1444;49.166;7.312;2023-07-20T14:06:03;27.50;64.20
2873;DHT22;1444;49.166;7.312;2023-07-20T14:08:30;27.50;64.90
2873;DHT22;1444;49.166;7.312;2023-07-20T14:10:56;27.60;65.80
2873;DHT22;1444;49.166;7.312;2023-07-20T14:13:25;27.60;64.20
2873;DHT22;1444;49.166;7.312;2023-07-20T14:15:52;27.80;66.50
2873;DHT22;1444;49.166;7.312;2023-07-20T14:18:18;28.00;64.30
2873;DHT22;1444;49.166;7.312;2023-07-20T14:20:45;28.10;67.70
2873;DHT22;1444;49.166;7.312;2023-07-20T14:23:12;28.00;64.80
2873;DHT22;1444;49.166;7.312;2023-07-20T14:25:39;27.90;62.00
2873;DHT22;1444;49.166;7.312;2023-07-20T14:28:07;28.00;66.10
2873;DHT22;1444;49.166;7.312;2023-07-20T14:30:35;28.10;65.00
2873;DHT22;1444;49.166;7.312;2023-07-20T14:33:02;28.40;64.80
2873;DHT22;1444;49.166;7.312;2023-07-20T14:35:29;28.20;60.30
2873;DHT22;1444;49.166;7.312;2023-07-20T14:37:56;28.20;62.30
2873;DHT22;1444;49.166;7.312;2023-07-20T14:40:23;28.30;61.90
2873;DHT22;1444;49.166;7.312;2023-07-20T14:42:50;28.20;60.90
2873;DHT22;1444;49.166;7.312;2023-07-20T14:45:17;28.30;60.90
2873;DHT22;1444;49.166;7.312;2023-07-20T14:47:46;28.30;62.00
2873;DHT22;1444;49.166;7.312;2023-07-20T14:50:19;28.00;62.00
2873;DHT22;1444;49.166;7.312;2023-07-20T14:52:46;27.80;62.10
2873;DHT22;1444;49.166;7.312;2023-07-20T14:55:13;27.80;65.50
2873;DHT22;1444;49.166;7.312;2023-07-20T14:57:40;28.00;62.70
2873;DHT22;1444;49.166;7.312;2023-07-20T15:00:07;28.00;63.30
2873;DHT22;1444;49.166;7.312;2023-07-20T15:02:36;28.30;65.60
2873;DHT22;1444;49.166;7.312;2023-07-20T15:05:07;28.10;61.20
2873;DHT22;1444;49.166;7.312;2023-07-20T15:07:34;28.10;64.80
2873;DHT22;1444;49.166;7.312;2023-07-20T15:10:02;28.20;62.00
2873;DHT22;1444;49.166;7.312;2023-07-20T15:12:29;28.10;62.40
2873;DHT22;1444;49.166;7.312;2023-07-20T15:15:04;28.10;64.60
2873;DHT22;1444;49.166;7.312;2023-07-20T15:17:31;28.00;62.80
2873;DHT22;1444;49.166;7.312;2023-07-20T15:19:59;28.00;64.70
2873;DHT22;1444;49.166;7.312;2023-07-20T15:22:27;28.20;65.30
2873;DHT22;1444;49.166;7.312;2023-07-20T15:24:54;28.30;62.10
2873;DHT22;1444;49.166;7.312;2023-07-20T15:27:20;28.30;60.50
2873;DHT22;1444;49.166;7.312;2023-07-20T15:29:48;27.90;60.60
2873;DHT22;1444;49.166;7.312;2023-07-20T15:32:15;27.90;61.30
2873;DHT22;1444;49.166;7.312;2023-07-20T15:34:42;27.60;61.90
2873;DHT22;1444;49.166;7.312;2023-07-20T15:37:09;27.70;64.80
2873;DHT22;1444;49.166;7.312;2023-07-20T15:39:37;27.80;63.40
2873;DHT22;1444;49.166;7.312;2023-07-20T15:42:05;27.80;63.30
2873;DHT22;1444;49.166;7.312;2023-07-20T15:44:32;27.90;63.50
2873;DHT22;1444;49.166;7.312;2023-07-20T15:46:59;28.00;62.80
2873;DHT22;1444;49.166;7.312;2023-07-20T15:49:26;28.20;65.10
2873;DHT22;1444;49.166;7.312;2023-07-20T15:51:54;28.10;61.10
2873;DHT22;1444;49.166;7.312;2023-07-20T15:54:21;28.00;61.70
2873;DHT22;1444;49.166;7.312;2023-07-20T15:56:49;27.90;63.20
2873;DHT22;1444;49.166;7.312;2023-07-20T15:59:17;27.80;61.20
2873;DHT22;1444;49.166;7.312;2023-07-20T16:01:43;27.80;60.00
2873;DHT22;1444;49.166;7.312;2023-07-20T16:04:11;27.90;63.60
2873;DHT22;1444;49.166;7.312;2023-07-20T16:06:39;28.00;64.30
2873;DHT22;1444;49.166;7.312;2023-07-20T16:09:06;28.10;62.50